17:28
Airports
History
Links
Donate
Help keep this website running!
PayPal
Bitcoin
This page is community maintained. The information is intended for PC simulator navigation or reference.
Always use approved charts for navigation.
YCWG
COAST WATCHER HEIGHTS
COAST WATCHER HEIGHTS (YCWG)
Trinity Beach, Queensland, Australia (4879)
4
Lat/Lng:16° 47' 54.47" S / 145° 41' 27.68" E
-16.798463 / 145.691021
Elevation:44'ft / 13mMSL
ID / ICAO:YCWG
Runways:1
Longest:10-28
Dirt 322m / 1,056ft
Nearby Weather17:00 GMT 2018-02-19
Nearby weather at YBCS, Cairns Intl located 6.9 nautical miles from YCWG
Altimeter: 29.71
Visibility: 6.2 statute miles
Wind: 6 knots (from 270°)
Temp: 26°c / 79°f
Humidity: 83.6%

METAR: YBCS 191700Z 27006KT CAVOK 26/23 Q1006 NOSIG

(Powered by phpweather)
Runway 10 / 28
Dimensions:321.9 x 10.1m 1056' x 33'ft
Surface:Dirt
Runway 10 [A]Runway 28 [B]
Heading:100°TH 280°TH
Lat:
Lng:
16° 47' 53.48"S
145° 41' 22.3"E
16° 47' 55.46"S
145° 41' 33.05"E
User Notes and Comments
16° 47' 54.47" S / 145° 41' 27.68" E
Distance To
Airport ID:
Nearby Airports
(C) Cairns Intl 6.9 NM
YBCS ( WX ) SE 144°
(U) YALKULA 23.2 NM
YYAK W 281°
(U) Mareeba 25.8 NM
YMBA SW 223°
4 Atherton 33.8 NM
YATN SSW 200°
4 WONGA BEACH 37.5 NM
YWGA NNW 331°
4 BARRONUP 38.2 NM
YBNP SSW 192°
4 BROOKLYN 38.7 NM
YBYN WNW 293°
VFR Chart
Flight Planning at SkyVector.com